This is the latest recevied weather packets stored in our database for station/object AC0YE. If no packets are shown the sender has not sent any weather packets the latest 10 day(s).
| Time | Temp. | Humidity | Pressure | Rain* | Wind** | Luminosity | Snow |
|---|---|---|---|---|---|---|---|
| 1777618216 | 2.78° C | 75% | 1017.2 hPa | 0 mm | - | - | - |
| 1777617916 | 3.33° C | 75% | 1017.3 hPa | 0 mm | - | - | - |
| 1777617316 | 3.33° C | 74% | 1017.4 hPa | 0 mm | - | - | - |
| 1777616716 | 3.33° C | 74% | 1017.4 hPa | 0 mm | - | - | - |
| 1777615216 | 3.89° C | 73% | 1017.5 hPa | 0 mm | - | - | - |
| 1777613716 | 3.89° C | 71% | 1017.2 hPa | 0 mm | - | - | - |
| 1777612816 | 4.44° C | 71% | 1017 hPa | 0 mm | - | - | - |
| 1777611916 | 5° C | 69% | 1016.9 hPa | 0 mm | - | - | - |
| 1777611016 | 5° C | 69% | 1016.9 hPa | 0 mm | - | - | - |
| 1777606216 | 6.67° C | 65% | 1017 hPa | 0 mm | - | - | - |
| 1777603836 | 7.78° C | 60% | 1016.8 hPa | 0 mm | - | - | - |
| 1777603536 | 7.78° C | 60% | 1016.8 hPa | 0 mm | - | - | - |
| 1777602916 | 8.33° C | 60% | 1016.6 hPa | 0 mm | - | - | - |
| 1777600236 | 10° C | 53% | 1015.9 hPa | 0 mm | - | - | - |
| 1777598716 | 10.56° C | 49% | 1015.7 hPa | 0 mm | - | - | - |
| 1777597215 | 11.11° C | 50% | 1015.3 hPa | 0 mm | - | - | - |
| 1777596035 | 11.11° C | 48% | 1015 hPa | 0 mm | - | - | - |
| 1777595736 | 11.11° C | 47% | 1014.8 hPa | 0 mm | - | - | - |
| 1777594815 | 11.67° C | 46% | 1014.6 hPa | 0 mm | - | - | - |
| 1777594215 | 12.22° C | 44% | 1014.5 hPa | 0 mm | - | - | - |
| 1777593016 | 12.78° C | 45% | 1014.3 hPa | 0 mm | - | - | - |
| 1777591815 | 13.33° C | 46% | 1014.2 hPa | 0 mm | - | - | - |
| 1777591515 | 13.33° C | 49% | 1014.3 hPa | 0 mm | - | - | - |
| 1777590315 | 12.78° C | 52% | 1014.6 hPa | 0 mm | - | - | - |
| 1777587335 | 13.33° C | 56% | 1014.6 hPa | 0 mm | - | - | - |
* Rain latest hour (hover to see other rain measurements)
** Current wind speed in m/s (hover to see current wind gust speed)